B1108 ZULS-VQPR
Flight info
| Callsign | B1108 |
|---|---|
| Flight time | 1h 12m |
| Altitude | 36100 |
| Route | LXA B345 NONIM/N0464F360 B345 TUMLI/N0458F370 G348 PRO |
| Aircraft | A319/M-SDE3FGHIRWY/LB1 |
Departure
| Time | 2026-04-14 16:11 |
|---|---|
| Airport | Lhasa Gonggar International Airport (ZULS) |
Arrival
| Time | 2026-04-14 17:24 |
|---|---|
| Airport | Paro International Airport (VQPR) |
| Time | Latitude | Longitude | Altitude | Speed | Heading |
|---|---|---|---|---|---|
| 2026-04-14 15:53 | 29.29360 | 90.89556 | 11559 ft | 0 kts | 180° |
| 2026-04-14 16:02 | 29.29362 | 90.89556 | 11567 ft | 1 kts | 180° |
| 2026-04-14 16:02 | 29.29372 | 90.89556 | 11567 ft | 3 kts | 181° |
| 2026-04-14 16:03 | 29.29392 | 90.89557 | 11566 ft | 3 kts | 179° |
| 2026-04-14 16:03 | 29.29412 | 90.89555 | 11566 ft | 3 kts | 172° |
| 2026-04-14 16:03 | 29.29433 | 90.89552 | 11567 ft | 3 kts | 173° |
| 2026-04-14 16:03 | 29.29453 | 90.89549 | 11570 ft | 3 kts | 169° |
| 2026-04-14 16:04 | 29.29464 | 90.89546 | 11570 ft | 1 kts | 167° |
| 2026-04-14 16:04 | 29.29466 | 90.89546 | 11570 ft | 0 kts | 167° |
| 2026-04-14 16:05 | 29.29466 | 90.89545 | 11570 ft | 0 kts | 167° |
| 2026-04-14 16:05 | 29.29463 | 90.89541 | 11570 ft | 1 kts | 215° |
| 2026-04-14 16:05 | 29.29447 | 90.89473 | 11570 ft | 13 kts | 268° |
| 2026-04-14 16:06 | 29.29471 | 90.89408 | 11569 ft | 8 kts | 6° |
| 2026-04-14 16:06 | 29.29516 | 90.89364 | 11567 ft | 19 kts | 273° |
| 2026-04-14 16:06 | 29.29511 | 90.89123 | 11569 ft | 34 kts | 268° |
| 2026-04-14 16:06 | 29.29501 | 90.88856 | 11566 ft | 33 kts | 268° |
| 2026-04-14 16:07 | 29.29585 | 90.88711 | 11568 ft | 18 kts | 355° |
| 2026-04-14 16:07 | 29.29708 | 90.88704 | 11569 ft | 18 kts | 356° |
| 2026-04-14 16:07 | 29.29846 | 90.88718 | 11567 ft | 23 kts | 33° |
| 2026-04-14 16:07 | 29.29970 | 90.88818 | 11566 ft | 21 kts | 22° |
| 2026-04-14 16:08 | 29.30101 | 90.88829 | 11568 ft | 9 kts | 0° |
| 2026-04-14 16:08 | 29.30117 | 90.88884 | 11569 ft | 7 kts | 86° |
| 2026-04-14 16:08 | 29.30118 | 90.88903 | 11570 ft | 1 kts | 87° |
| 2026-04-14 16:08 | 29.30118 | 90.88909 | 11570 ft | 1 kts | 87° |
| 2026-04-14 16:09 | 29.30118 | 90.88916 | 11570 ft | 1 kts | 87° |
| 2026-04-14 16:09 | 29.30118 | 90.88923 | 11570 ft | 1 kts | 87° |
| 2026-04-14 16:09 | 29.30119 | 90.88932 | 11569 ft | 1 kts | 87° |
| 2026-04-14 16:09 | 29.30119 | 90.88936 | 11569 ft | 0 kts | 89° |
| 2026-04-14 16:10 | 29.30119 | 90.88942 | 11569 ft | 3 kts | 88° |
| 2026-04-14 16:10 | 29.30123 | 90.89171 | 11569 ft | 62 kts | 88° |
| 2026-04-14 16:10 | 29.30133 | 90.89897 | 11565 ft | 118 kts | 89° |
| 2026-04-14 16:11 | 29.30151 | 90.91029 | 11570 ft | 164 kts | 89° |
| 2026-04-14 16:11 | 29.30184 | 90.92500 | 11589 ft | 201 kts | 87° |
| 2026-04-14 16:11 | 29.30167 | 90.94127 | 12047 ft | 207 kts | 90° |
| 2026-04-14 16:11 | 29.30155 | 90.95780 | 12763 ft | 207 kts | 88° |
| 2026-04-14 16:12 | 29.30184 | 90.97433 | 13530 ft | 209 kts | 88° |
| 2026-04-14 16:12 | 29.30225 | 90.99183 | 13783 ft | 231 kts | 88° |
| 2026-04-14 16:12 | 29.30288 | 91.01105 | 13892 ft | 252 kts | 83° |
| 2026-04-14 16:12 | 29.30776 | 91.03084 | 13998 ft | 272 kts | 64° |
| 2026-04-14 16:13 | 29.31548 | 91.05097 | 14428 ft | 279 kts | 72° |
| 2026-04-14 16:13 | 29.31906 | 91.07327 | 15059 ft | 284 kts | 87° |
| 2026-04-14 16:13 | 29.31743 | 91.09565 | 15673 ft | 289 kts | 102° |
| 2026-04-14 16:13 | 29.31190 | 91.11824 | 16342 ft | 293 kts | 104° |
| 2026-04-14 16:14 | 29.30725 | 91.14082 | 17009 ft | 296 kts | 100° |
| 2026-04-14 16:14 | 29.30380 | 91.16421 | 17668 ft | 300 kts | 96° |
| 2026-04-14 16:14 | 29.30164 | 91.18806 | 18324 ft | 303 kts | 93° |
| 2026-04-14 16:14 | 29.29995 | 91.21232 | 18907 ft | 307 kts | 94° |
| 2026-04-14 16:15 | 29.29817 | 91.23688 | 19488 ft | 312 kts | 94° |
| 2026-04-14 16:15 | 29.29632 | 91.26182 | 20061 ft | 317 kts | 94° |
| 2026-04-14 16:15 | 29.29442 | 91.28710 | 20645 ft | 321 kts | 94° |
| 2026-04-14 16:15 | 29.29189 | 91.31272 | 21210 ft | 327 kts | 102° |
| 2026-04-14 16:16 | 29.28473 | 91.33761 | 21752 ft | 332 kts | 116° |
| 2026-04-14 16:16 | 29.27265 | 91.36021 | 22309 ft | 335 kts | 130° |
| 2026-04-14 16:16 | 29.25627 | 91.37924 | 22862 ft | 337 kts | 145° |
| 2026-04-14 16:16 | 29.23642 | 91.39353 | 23411 ft | 337 kts | 159° |
| 2026-04-14 16:17 | 29.21465 | 91.40351 | 23893 ft | 339 kts | 163° |
| 2026-04-14 16:17 | 29.19247 | 91.41324 | 24394 ft | 342 kts | 163° |
| 2026-04-14 16:17 | 29.17016 | 91.42301 | 24900 ft | 345 kts | 163° |
| 2026-04-14 16:17 | 29.14760 | 91.43274 | 25409 ft | 346 kts | 167° |
| 2026-04-14 16:18 | 29.12414 | 91.43777 | 25909 ft | 341 kts | 184° |
| 2026-04-14 16:18 | 29.10083 | 91.43520 | 26408 ft | 334 kts | 201° |
| 2026-04-14 16:18 | 29.07988 | 91.42556 | 26926 ft | 327 kts | 217° |
| 2026-04-14 16:18 | 29.06213 | 91.40990 | 27361 ft | 320 kts | 231° |
| 2026-04-14 16:19 | 29.04890 | 91.38977 | 27780 ft | 316 kts | 246° |
| 2026-04-14 16:19 | 29.04065 | 91.36650 | 28070 ft | 321 kts | 259° |
| 2026-04-14 16:19 | 29.03798 | 91.34089 | 28211 ft | 330 kts | 273° |
| 2026-04-14 16:19 | 29.04163 | 91.31460 | 28355 ft | 342 kts | 286° |
| 2026-04-14 16:20 | 29.04858 | 91.28820 | 28544 ft | 353 kts | 286° |
| 2026-04-14 16:20 | 29.05570 | 91.26084 | 28678 ft | 365 kts | 286° |
| 2026-04-14 16:20 | 29.06299 | 91.23259 | 28806 ft | 376 kts | 286° |
| 2026-04-14 16:20 | 29.07044 | 91.20359 | 28928 ft | 385 kts | 285° |
| 2026-04-14 16:21 | 29.07807 | 91.17385 | 29065 ft | 395 kts | 285° |
| 2026-04-14 16:21 | 29.08589 | 91.14334 | 29192 ft | 405 kts | 285° |
| 2026-04-14 16:21 | 29.09391 | 91.11207 | 29324 ft | 414 kts | 285° |
| 2026-04-14 16:21 | 29.10209 | 91.08020 | 29452 ft | 421 kts | 285° |
| 2026-04-14 16:22 | 29.11041 | 91.04786 | 29682 ft | 426 kts | 285° |
| 2026-04-14 16:22 | 29.11881 | 91.01521 | 29971 ft | 430 kts | 285° |
| 2026-04-14 16:22 | 29.12730 | 90.98214 | 30084 ft | 436 kts | 285° |
| 2026-04-14 16:22 | 29.13589 | 90.94865 | 30203 ft | 442 kts | 285° |
| 2026-04-14 16:23 | 29.14461 | 90.91466 | 30366 ft | 447 kts | 285° |
| 2026-04-14 16:23 | 29.15336 | 90.88049 | 30700 ft | 447 kts | 285° |
| 2026-04-14 16:23 | 29.16204 | 90.84643 | 31110 ft | 446 kts | 285° |
| 2026-04-14 16:23 | 29.17060 | 90.81283 | 31555 ft | 444 kts | 285° |
| 2026-04-14 16:24 | 29.17921 | 90.77900 | 31993 ft | 442 kts | 285° |
| 2026-04-14 16:24 | 29.18779 | 90.74528 | 32421 ft | 440 kts | 285° |
| 2026-04-14 16:24 | 29.19631 | 90.71172 | 32882 ft | 438 kts | 286° |
| 2026-04-14 16:24 | 29.20475 | 90.67831 | 33387 ft | 435 kts | 286° |
| 2026-04-14 16:25 | 29.21310 | 90.64517 | 33848 ft | 433 kts | 286° |
| 2026-04-14 16:25 | 29.22146 | 90.61211 | 34288 ft | 431 kts | 286° |
| 2026-04-14 16:25 | 29.22974 | 90.57930 | 34758 ft | 428 kts | 285° |
| 2026-04-14 16:25 | 29.23796 | 90.54669 | 35241 ft | 424 kts | 285° |
| 2026-04-14 16:26 | 29.24611 | 90.51434 | 35734 ft | 421 kts | 285° |
| 2026-04-14 16:26 | 29.25408 | 90.48263 | 35960 ft | 419 kts | 285° |
| 2026-04-14 16:26 | 29.26212 | 90.45068 | 36012 ft | 417 kts | 285° |
| 2026-04-14 16:27 | 29.27812 | 90.38699 | 36025 ft | 415 kts | 285° |
| 2026-04-14 16:27 | 29.29410 | 90.32347 | 36035 ft | 413 kts | 285° |
| 2026-04-14 16:28 | 29.30991 | 90.26016 | 36044 ft | 414 kts | 285° |
| 2026-04-14 16:28 | 29.32496 | 90.19660 | 36048 ft | 413 kts | 280° |
| 2026-04-14 16:29 | 29.32864 | 90.13083 | 36047 ft | 414 kts | 273° |
| 2026-04-14 16:29 | 29.33069 | 90.06492 | 36045 ft | 415 kts | 273° |
| 2026-04-14 16:30 | 29.33277 | 89.99882 | 36048 ft | 414 kts | 274° |
| 2026-04-14 16:30 | 29.33482 | 89.93340 | 36043 ft | 413 kts | 274° |
| 2026-04-14 16:31 | 29.33684 | 89.86764 | 36034 ft | 413 kts | 273° |
| 2026-04-14 16:31 | 29.33877 | 89.80182 | 36014 ft | 413 kts | 273° |
| 2026-04-14 16:32 | 29.34068 | 89.73587 | 36017 ft | 414 kts | 273° |
| 2026-04-14 16:32 | 29.34255 | 89.66988 | 36019 ft | 414 kts | 273° |
| 2026-04-14 16:33 | 29.34444 | 89.60402 | 36008 ft | 413 kts | 273° |
| 2026-04-14 16:33 | 29.34626 | 89.53819 | 35998 ft | 413 kts | 273° |
| 2026-04-14 16:34 | 29.34807 | 89.47235 | 35989 ft | 413 kts | 273° |
| 2026-04-14 16:34 | 29.34977 | 89.40652 | 35981 ft | 413 kts | 273° |
| 2026-04-14 16:35 | 29.35149 | 89.34105 | 35973 ft | 413 kts | 273° |
| 2026-04-14 16:35 | 29.34412 | 89.27589 | 35969 ft | 419 kts | 253° |
| 2026-04-14 16:35 | 29.33127 | 89.24561 | 35967 ft | 427 kts | 242° |
| 2026-04-14 16:36 | 29.31256 | 89.21876 | 35963 ft | 435 kts | 233° |
| 2026-04-14 16:36 | 29.27116 | 89.16805 | 35957 ft | 436 kts | 233° |
| 2026-04-14 16:37 | 29.22988 | 89.11726 | 35949 ft | 435 kts | 233° |
| 2026-04-14 16:37 | 29.18869 | 89.06650 | 35947 ft | 434 kts | 234° |
| 2026-04-14 16:38 | 29.14753 | 89.01589 | 35946 ft | 434 kts | 233° |
| 2026-04-14 16:38 | 29.10658 | 88.96563 | 35949 ft | 434 kts | 234° |
| 2026-04-14 16:39 | 29.06542 | 88.91519 | 35956 ft | 434 kts | 233° |
| 2026-04-14 16:39 | 29.02420 | 88.86473 | 35959 ft | 434 kts | 233° |
| 2026-04-14 16:40 | 28.98295 | 88.81430 | 35970 ft | 434 kts | 233° |
| 2026-04-14 16:40 | 28.94171 | 88.76391 | 35989 ft | 433 kts | 234° |
| 2026-04-14 16:41 | 28.90051 | 88.71367 | 36003 ft | 433 kts | 233° |
| 2026-04-14 16:41 | 28.85936 | 88.66349 | 36021 ft | 433 kts | 233° |
| 2026-04-14 16:42 | 28.81841 | 88.61369 | 36039 ft | 433 kts | 233° |
| 2026-04-14 16:42 | 28.77716 | 88.56357 | 36052 ft | 432 kts | 233° |
| 2026-04-14 16:43 | 28.73594 | 88.51353 | 36061 ft | 433 kts | 233° |
| 2026-04-14 16:43 | 28.69473 | 88.46357 | 36071 ft | 432 kts | 233° |
| 2026-04-14 16:44 | 28.65354 | 88.41371 | 36074 ft | 432 kts | 233° |
| 2026-04-14 16:44 | 28.61228 | 88.36391 | 36064 ft | 432 kts | 233° |
| 2026-04-14 16:45 | 28.55074 | 88.28949 | 36061 ft | 432 kts | 233° |
| 2026-04-14 16:45 | 28.50955 | 88.23983 | 36076 ft | 431 kts | 233° |
| 2026-04-14 16:46 | 28.46834 | 88.19024 | 36077 ft | 432 kts | 233° |
| 2026-04-14 16:46 | 28.42705 | 88.14054 | 36076 ft | 432 kts | 233° |
| 2026-04-14 16:47 | 28.38587 | 88.09114 | 36089 ft | 423 kts | 234° |
| 2026-04-14 16:47 | 28.34595 | 88.04352 | 36100 ft | 413 kts | 234° |
| 2026-04-14 16:48 | 28.30663 | 87.99639 | 36114 ft | 411 kts | 234° |
| 2026-04-14 16:48 | 28.26728 | 87.94921 | 36128 ft | 412 kts | 234° |
| 2026-04-14 16:49 | 28.22779 | 87.90197 | 36150 ft | 412 kts | 234° |
| 2026-04-14 16:49 | 28.18823 | 87.85465 | 36160 ft | 418 kts | 234° |
| 2026-04-14 16:50 | 28.15469 | 87.81454 | 36174 ft | 425 kts | 234° |
| 2026-04-14 16:50 | 28.11379 | 87.76585 | 36178 ft | 425 kts | 234° |
| 2026-04-14 16:51 | 28.06714 | 87.71052 | 36211 ft | 418 kts | 233° |
| 2026-04-14 16:51 | 28.02634 | 87.66191 | 36215 ft | 431 kts | 233° |
| 2026-04-14 16:52 | 27.99165 | 87.62062 | 36223 ft | 433 kts | 233° |
| 2026-04-14 16:52 | 27.95018 | 87.57149 | 36224 ft | 435 kts | 233° |
| 2026-04-14 16:53 | 27.92926 | 87.54675 | 36077 ft | 434 kts | 233° |
| 2026-04-14 16:53 | 27.90833 | 87.52200 | 36121 ft | 435 kts | 234° |
| 2026-04-14 16:53 | 27.86642 | 87.47248 | 36115 ft | 435 kts | 233° |
| 2026-04-14 16:54 | 27.81929 | 87.42825 | 36106 ft | 453 kts | 217° |
| 2026-04-14 16:54 | 27.76045 | 87.39955 | 36094 ft | 463 kts | 210° |
| 2026-04-14 16:55 | 27.70107 | 87.37229 | 36088 ft | 465 kts | 211° |
| 2026-04-14 16:55 | 27.64081 | 87.34448 | 36066 ft | 465 kts | 211° |
| 2026-04-14 16:56 | 27.58138 | 87.31698 | 36055 ft | 465 kts | 211° |
| 2026-04-14 16:56 | 27.52150 | 87.28942 | 36032 ft | 465 kts | 211° |
| 2026-04-14 16:57 | 27.46158 | 87.26198 | 36024 ft | 466 kts | 211° |
| 2026-04-14 16:57 | 27.40144 | 87.23462 | 36018 ft | 469 kts | 208° |
| 2026-04-14 16:58 | 27.36890 | 87.22685 | 36005 ft | 490 kts | 192° |
| 2026-04-14 16:58 | 27.33430 | 87.23044 | 35995 ft | 512 kts | 173° |
| 2026-04-14 16:58 | 27.30113 | 87.24649 | 35971 ft | 531 kts | 153° |
| 2026-04-14 16:58 | 27.27294 | 87.27407 | 35958 ft | 545 kts | 133° |
| 2026-04-14 16:59 | 27.22995 | 87.34529 | 35968 ft | 554 kts | 124° |
| 2026-04-14 16:59 | 27.19096 | 87.42035 | 35964 ft | 557 kts | 122° |
| 2026-04-14 17:00 | 27.15195 | 87.49489 | 35959 ft | 557 kts | 124° |
| 2026-04-14 17:00 | 27.11117 | 87.56862 | 35947 ft | 556 kts | 125° |
| 2026-04-14 17:01 | 27.06973 | 87.64189 | 35942 ft | 556 kts | 125° |
| 2026-04-14 17:01 | 27.02856 | 87.71543 | 35912 ft | 557 kts | 124° |
| 2026-04-14 17:02 | 26.98758 | 87.78927 | 35904 ft | 558 kts | 125° |
| 2026-04-14 17:02 | 26.94664 | 87.86310 | 35912 ft | 558 kts | 125° |
| 2026-04-14 17:03 | 26.90552 | 87.93680 | 35908 ft | 558 kts | 125° |
| 2026-04-14 17:03 | 26.86429 | 88.01036 | 35890 ft | 557 kts | 125° |
| 2026-04-14 17:04 | 26.82298 | 88.08397 | 35882 ft | 558 kts | 126° |
| 2026-04-14 17:04 | 26.78175 | 88.15753 | 35872 ft | 558 kts | 126° |
| 2026-04-14 17:05 | 26.74229 | 88.23224 | 35858 ft | 560 kts | 115° |
| 2026-04-14 17:05 | 26.72993 | 88.27355 | 35863 ft | 562 kts | 102° |
| 2026-04-14 17:05 | 26.72472 | 88.31678 | 35854 ft | 560 kts | 90° |
| 2026-04-14 17:06 | 26.72675 | 88.36005 | 35855 ft | 555 kts | 77° |
| 2026-04-14 17:06 | 26.73573 | 88.40177 | 35853 ft | 547 kts | 65° |
| 2026-04-14 17:06 | 26.75105 | 88.44014 | 35856 ft | 537 kts | 53° |
| 2026-04-14 17:06 | 26.77040 | 88.47579 | 35857 ft | 535 kts | 51° |
| 2026-04-14 17:07 | 26.80926 | 88.54643 | 35408 ft | 538 kts | 52° |
| 2026-04-14 17:07 | 26.82874 | 88.58205 | 34821 ft | 536 kts | 52° |
| 2026-04-14 17:07 | 26.84810 | 88.61762 | 34448 ft | 533 kts | 52° |
| 2026-04-14 17:08 | 26.86727 | 88.65292 | 34103 ft | 526 kts | 52° |
| 2026-04-14 17:08 | 26.88611 | 88.68770 | 33350 ft | 518 kts | 53° |
| 2026-04-14 17:08 | 26.90467 | 88.72192 | 32537 ft | 511 kts | 53° |
| 2026-04-14 17:08 | 26.92309 | 88.75580 | 31748 ft | 507 kts | 53° |
| 2026-04-14 17:09 | 26.94144 | 88.78950 | 30983 ft | 505 kts | 54° |
| 2026-04-14 17:09 | 26.95952 | 88.82321 | 30241 ft | 505 kts | 58° |
| 2026-04-14 17:09 | 26.97233 | 88.85998 | 29421 ft | 510 kts | 74° |
| 2026-04-14 17:09 | 26.97619 | 88.89935 | 28576 ft | 509 kts | 91° |
| 2026-04-14 17:10 | 26.97084 | 88.93820 | 27750 ft | 504 kts | 108° |
| 2026-04-14 17:10 | 26.95672 | 88.97377 | 26947 ft | 496 kts | 124° |
| 2026-04-14 17:10 | 26.93527 | 89.00336 | 26168 ft | 486 kts | 138° |
| 2026-04-14 17:10 | 26.91107 | 89.02979 | 25408 ft | 483 kts | 140° |
| 2026-04-14 17:11 | 26.88748 | 89.05571 | 24749 ft | 481 kts | 135° |
| 2026-04-14 17:11 | 26.86841 | 89.08694 | 24102 ft | 482 kts | 116° |
| 2026-04-14 17:11 | 26.85800 | 89.12186 | 23491 ft | 479 kts | 99° |
| 2026-04-14 17:11 | 26.85653 | 89.15872 | 22772 ft | 471 kts | 81° |
| 2026-04-14 17:12 | 26.86411 | 89.19385 | 22059 ft | 460 kts | 64° |
| 2026-04-14 17:12 | 26.87906 | 89.22497 | 21373 ft | 450 kts | 52° |
| 2026-04-14 17:12 | 26.89618 | 89.25415 | 20701 ft | 447 kts | 52° |
| 2026-04-14 17:12 | 26.91319 | 89.28306 | 20050 ft | 443 kts | 52° |
| 2026-04-14 17:13 | 26.93008 | 89.31176 | 19405 ft | 439 kts | 53° |
| 2026-04-14 17:13 | 26.94682 | 89.34021 | 18784 ft | 438 kts | 53° |
| 2026-04-14 17:13 | 26.96371 | 89.36884 | 18159 ft | 442 kts | 53° |
| 2026-04-14 17:13 | 26.98070 | 89.39766 | 17439 ft | 445 kts | 53° |
| 2026-04-14 17:14 | 26.99768 | 89.42655 | 16719 ft | 439 kts | 53° |
| 2026-04-14 17:14 | 27.01429 | 89.45490 | 16036 ft | 430 kts | 53° |
| 2026-04-14 17:14 | 27.03312 | 89.48011 | 15380 ft | 416 kts | 39° |
| 2026-04-14 17:14 | 27.05631 | 89.49858 | 14730 ft | 403 kts | 25° |
| 2026-04-14 17:15 | 27.08196 | 89.50960 | 14093 ft | 389 kts | 10° |
| 2026-04-14 17:15 | 27.10836 | 89.51316 | 13427 ft | 376 kts | 357° |
| 2026-04-14 17:15 | 27.13389 | 89.51194 | 13107 ft | 357 kts | 355° |
| 2026-04-14 17:15 | 27.15797 | 89.51086 | 13020 ft | 335 kts | 356° |
| 2026-04-14 17:16 | 27.18046 | 89.51001 | 13034 ft | 313 kts | 355° |
| 2026-04-14 17:16 | 27.20161 | 89.50923 | 13046 ft | 294 kts | 355° |
| 2026-04-14 17:16 | 27.22114 | 89.50848 | 13045 ft | 276 kts | 355° |
| 2026-04-14 17:16 | 27.23993 | 89.50773 | 13053 ft | 266 kts | 355° |
| 2026-04-14 17:17 | 27.25851 | 89.50693 | 12743 ft | 270 kts | 356° |
| 2026-04-14 17:17 | 27.27760 | 89.50608 | 12186 ft | 275 kts | 356° |
| 2026-04-14 17:17 | 27.29626 | 89.50527 | 12070 ft | 263 kts | 356° |
| 2026-04-14 17:17 | 27.31423 | 89.50347 | 12060 ft | 258 kts | 341° |
| 2026-04-14 17:18 | 27.33041 | 89.49522 | 12069 ft | 256 kts | 326° |
| 2026-04-14 17:18 | 27.34486 | 89.48374 | 12074 ft | 250 kts | 318° |
| 2026-04-14 17:18 | 27.35759 | 89.47074 | 12074 ft | 246 kts | 315° |
| 2026-04-14 17:18 | 27.36998 | 89.45745 | 12080 ft | 246 kts | 315° |
| 2026-04-14 17:19 | 27.38228 | 89.44410 | 12084 ft | 246 kts | 315° |
| 2026-04-14 17:19 | 27.39454 | 89.43070 | 12088 ft | 245 kts | 315° |
| 2026-04-14 17:19 | 27.40635 | 89.41777 | 12092 ft | 227 kts | 315° |
| 2026-04-14 17:19 | 27.41691 | 89.40552 | 11991 ft | 210 kts | 307° |
| 2026-04-14 17:20 | 27.42320 | 89.39132 | 11804 ft | 200 kts | 287° |
| 2026-04-14 17:20 | 27.42667 | 89.37638 | 11610 ft | 195 kts | 283° |
| 2026-04-14 17:20 | 27.43151 | 89.36207 | 11228 ft | 201 kts | 294° |
| 2026-04-14 17:20 | 27.43756 | 89.34802 | 11061 ft | 197 kts | 297° |
| 2026-04-14 17:21 | 27.44590 | 89.33608 | 11042 ft | 193 kts | 324° |
| 2026-04-14 17:21 | 27.45813 | 89.33150 | 11412 ft | 183 kts | 1° |
| 2026-04-14 17:21 | 27.46978 | 89.33633 | 11146 ft | 177 kts | 43° |
| 2026-04-14 17:21 | 27.47267 | 89.34909 | 10636 ft | 177 kts | 108° |
| 2026-04-14 17:22 | 27.46443 | 89.35921 | 9958 ft | 186 kts | 148° |
| 2026-04-14 17:22 | 27.45365 | 89.36769 | 9300 ft | 189 kts | 136° |
| 2026-04-14 17:22 | 27.44699 | 89.37992 | 8871 ft | 181 kts | 109° |
| 2026-04-14 17:22 | 27.44274 | 89.39275 | 8550 ft | 170 kts | 112° |
| 2026-04-14 17:23 | 27.43790 | 89.40473 | 8160 ft | 165 kts | 120° |
| 2026-04-14 17:23 | 27.42896 | 89.41174 | 7914 ft | 157 kts | 164° |
| 2026-04-14 17:23 | 27.41846 | 89.41556 | 7660 ft | 159 kts | 155° |
| 2026-04-14 17:23 | 27.40863 | 89.42116 | 7332 ft | 156 kts | 149° |
| 2026-04-14 17:24 | 27.40081 | 89.42632 | 7293 ft | 84 kts | 153° |
| 2026-04-14 17:24 | 27.39653 | 89.42898 | 7282 ft | 39 kts | 150° |
| 2026-04-14 17:24 | 27.39458 | 89.43003 | 7278 ft | 20 kts | 189° |
| 2026-04-14 17:24 | 27.39445 | 89.42933 | 7277 ft | 8 kts | 308° |
| 2026-04-14 17:25 | 27.39485 | 89.42902 | 7279 ft | 6 kts | 328° |
| 2026-04-14 17:25 | 27.39516 | 89.42881 | 7281 ft | 4 kts | 329° |
| 2026-04-14 17:25 | 27.39538 | 89.42866 | 7278 ft | 3 kts | 329° |
| 2026-04-14 17:25 | 27.39552 | 89.42857 | 7280 ft | 2 kts | 330° |
| 2026-04-14 17:26 | 27.39573 | 89.42843 | 7280 ft | 7 kts | 331° |
| 2026-04-14 17:26 | 27.39613 | 89.42818 | 7281 ft | 6 kts | 331° |
| 2026-04-14 17:26 | 27.39647 | 89.42800 | 7283 ft | 5 kts | 334° |
| 2026-04-14 17:26 | 27.39672 | 89.42785 | 7280 ft | 3 kts | 333° |
| 2026-04-14 17:27 | 27.39690 | 89.42775 | 7282 ft | 3 kts | 333° |
| 2026-04-14 17:27 | 27.39705 | 89.42767 | 7284 ft | 2 kts | 333° |
| 2026-04-14 17:27 | 27.39716 | 89.42761 | 7288 ft | 1 kts | 333° |
| 2026-04-14 17:27 | 27.39722 | 89.42758 | 7287 ft | 1 kts | 333° |
| 2026-04-14 17:28 | 27.39726 | 89.42754 | 7288 ft | 3 kts | 329° |
| 2026-04-14 17:28 | 27.39761 | 89.42731 | 7290 ft | 8 kts | 328° |
| 2026-04-14 17:28 | 27.39805 | 89.42699 | 7290 ft | 7 kts | 327° |
| 2026-04-14 17:28 | 27.39840 | 89.42675 | 7291 ft | 5 kts | 329° |
| 2026-04-14 17:29 | 27.39867 | 89.42657 | 7294 ft | 4 kts | 329° |
| 2026-04-14 17:29 | 27.39890 | 89.42642 | 7293 ft | 5 kts | 329° |
| 2026-04-14 17:29 | 27.39992 | 89.42576 | 7296 ft | 23 kts | 331° |
| 2026-04-14 17:29 | 27.40124 | 89.42494 | 7303 ft | 20 kts | 330° |
| 2026-04-14 17:30 | 27.40240 | 89.42419 | 7307 ft | 18 kts | 330° |
| 2026-04-14 17:30 | 27.40343 | 89.42354 | 7312 ft | 16 kts | 330° |
| 2026-04-14 17:30 | 27.40430 | 89.42299 | 7313 ft | 13 kts | 330° |
| 2026-04-14 17:30 | 27.40507 | 89.42251 | 7318 ft | 12 kts | 330° |
| 2026-04-14 17:31 | 27.40572 | 89.42209 | 7320 ft | 10 kts | 330° |
| 2026-04-14 17:31 | 27.40621 | 89.42178 | 7320 ft | 7 kts | 330° |
| 2026-04-14 17:31 | 27.40648 | 89.42148 | 7320 ft | 4 kts | 281° |
| 2026-04-14 17:31 | 27.40637 | 89.42116 | 7320 ft | 5 kts | 242° |
| 2026-04-14 17:32 | 27.40633 | 89.42108 | 7322 ft | 0 kts | 241° |
| 2026-04-14 17:32 | 27.40630 | 89.42103 | 7322 ft | 0 kts | 238° |